METAR Data
IDs: Format: Raw Decoded Include TAF

Data at: 1508 UTC 18 Aug 2019

PAGY 181453Z AUTO 04021G31KT 10SM -RA OVC090 12/M03 A3003 RMK AO2 PK WND 04031/1450 RAB1359E05B23 SLP170 P0000 60000 T01221033 58007 TSNO
PAGY 181353Z AUTO 04018G25KT 10SM OVC100 12/M03 A3005 RMK AO2 SLP176 T01221028 TSNO
PAGY 181253Z AUTO 04016G20KT 10SM OVC100 13/M03 A3004 RMK AO2 SLP173 T01281028 TSNO
PAGY 181153Z AUTO 03014G19KT 10SM OVC095 13/M02 A3005 RMK AO2 PK WND 04028/1103 SLP177 70020 T01331022 10161 20133 51012 TSNO
PAGY 180753Z AUTO 02014G26KT 10SM OVC110 16/M04 A3000 RMK AO2 PK WND 03027/0716 SLP160 T01561039 TSNO
PAGY 180653Z AUTO 03013G20KT 10SM OVC110 16/M03 A3001 RMK AO2 SLP162 T01561033 TSNO
PAGY 180553Z AUTO 03015KT 10SM OVC100 16/M03 A2999 RMK AO2 SLP156 T01611033 10194 20161 51021 TSNO
PAGY 180353Z AUTO 02012KT 10SM BKN110 17/M03 A2996 RMK AO2 PK WND 01026/0300 SLP147 T01721028 TSNO
PAGY 180253Z AUTO 03020G33KT 10SM BKN100 18/M03 A2993 RMK AO2 PK WND 03034/0216 SLP135 T01781033 53017 TSNO
PAGY 180053Z AUTO 03015G28KT 10SM OVC100 19/M01 A2989 RMK AO2 PK WND 03034/0037 SLP123 T01891011 TSNO
PAGY 172353Z AUTO 03015G25KT 10SM OVC100 18/01 A2988 RMK AO2 PK WND 03033/2301 SLP118 60000 T01830006 10183 20128 51013 TSNO
PAGY 172053Z AUTO 03022G32KT 10SM FEW065 SCT085 18/04 A2984 RMK AO2 PK WND 03032/2052 SLP106 60000 T01780044 55001 TSNO
PAGY 171853Z AUTO 02003KT 10SM SCT085 15/12 A2982 RMK AO2 SLP099 T01500117 TSNO
PAGY 171653Z AUTO 00000KT 9SM -RA OVC070 13/12 A2985 RMK AO2 SLP110 P0001 T01330117 TSNO
PAGY 171307Z AUTO 02003KT 6SM -RA BR SCT010 BKN048 OVC070 14/13 A2985 RMK AO2 P0001 T01440133 TSNO
PAGY 171253Z AUTO 00000KT 2SM RA BR FEW008 FEW046 OVC075 14/13 A2986 RMK AO2 VIS 3/4V4 SLP111 P0009 T01390128 TSNO
PAGY 171251Z AUTO 00000KT 1 3/4SM -RA BR FEW010 OVC075 13/13 A2985 RMK AO2 P0008 TSNO
PAGY 171206Z AUTO 30005KT 5SM RA BR SCT014 BKN024 OVC060 14/13 A2987 RMK AO2 P0003 T01440133 TSNO
PAGY 171153Z AUTO 00000KT 5SM RA BR SCT015 SCT023 OVC033 15/13 A2986 RMK AO2 SLP112 P0005 60017 70017 T01500133 10189 20139 56021 TSNO
PAGY 171053Z AUTO 29004KT 9SM -RA FEW010 SCT015 OVC022 14/13 A2987 RMK AO2 SLP113 P0004 T01440128 TSNO
PAGY 170953Z AUTO 24009KT 10SM -RA FEW026 OVC042 14/12 A2989 RMK AO2 SLP121 P0003 T01440122 TSNO
PAGY 170753Z AUTO 20008KT 10SM -RA OVC046 16/12 A2993 RMK AO2 SLP136 P0001 T01610122 TSNO
PAGY 170553Z AUTO 21013G23KT 10SM OVC060 19/12 A2994 RMK AO2 SLP138 T01890117 10211 20189 55008 TSNO
PAGY 170453Z AUTO 20015KT 10SM OVC065 19/12 A2993 RMK AO2 SLP137 T01890122 TSNO
PAGY 170353Z AUTO 21013KT 10SM OVC065 20/12 A2995 RMK AO2 SLP141 T02000117 TSNO